Time;durP1;ratioP1;P1;durP2;ratioP2;P2;SDS_P1;SDS_P2;PMS_P1;PMS_P2;Temp;Humidity;BMP_temperature;BMP_pressure;BME280_temperature;BME280_humidity;BME280_pressure;Samples;Min_cycle;Max_cycle;Signal;HPM_P1;HPM_P2
2023/07/15 00:01:20;;;;;;;5.10;3.67;;;18.30;99.90;;;;;;5026150;28;20215;-80
2023/07/15 00:03:49;;;;;;;5.35;3.70;;;18.20;99.90;;;;;;5033505;28;20684;-81
2023/07/15 00:06:16;;;;;;;4.07;3.17;;;18.20;99.90;;;;;;5039192;28;20637;-81
2023/07/15 00:08:43;;;;;;;8.27;3.65;;;18.20;99.90;;;;;;5044049;28;20712;-81
2023/07/15 00:11:16;;;;;;;4.63;3.60;;;18.20;99.90;;;;;;5024507;28;20284;-81
2023/07/15 00:13:42;;;;;;;4.95;3.72;;;18.20;99.90;;;;;;5044969;28;20224;-80
2023/07/15 00:16:09;;;;;;;4.68;3.28;;;18.10;99.90;;;;;;5026578;28;20212;-81
2023/07/15 00:18:36;;;;;;;4.55;3.50;;;18.10;99.90;;;;;;5026869;28;20769;-81
2023/07/15 00:21:15;;;;;;;4.32;3.60;;;18.10;99.90;;;;;;5024622;28;20263;-81
2023/07/15 00:23:42;;;;;;;4.80;3.72;;;18.10;99.90;;;;;;5047055;28;20239;-80
2023/07/15 00:26:09;;;;;;;4.82;3.97;;;18.10;99.90;;;;;;5031634;28;20230;-80
2023/07/15 00:28:37;;;;;;;4.88;3.90;;;18.10;99.90;;;;;;5030877;28;20705;-81
2023/07/15 00:31:12;;;;;;;5.13;3.80;;;18.00;99.90;;;;;;5032722;28;20213;-82
2023/07/15 00:33:40;;;;;;;5.13;3.60;;;18.00;99.90;;;;;;5045732;28;20226;-81
2023/07/15 00:36:09;;;;;;;5.20;3.47;;;18.00;99.90;;;;;;5031762;28;20236;-82
2023/07/15 00:38:36;;;;;;;6.13;3.45;;;18.00;99.90;;;;;;5042094;28;20241;-82
2023/07/15 00:41:03;;;;;;;5.05;3.15;;;18.00;99.90;;;;;;5039403;28;20760;-80
2023/07/15 00:43:52;;;;;;;4.35;3.78;;;18.00;99.90;;;;;;5028760;28;20236;-81
2023/07/15 00:46:33;;;;;;;3.67;3.38;;;17.90;99.90;;;;;;5027082;28;20307;-82
2023/07/15 00:49:04;;;;;;;4.78;3.35;;;17.90;99.90;;;;;;5049852;28;20228;-81
2023/07/15 00:51:34;;;;;;;4.90;3.42;;;17.90;99.90;;;;;;5029180;28;20224;-81
2023/07/15 00:54:02;;;;;;;5.63;3.72;;;17.90;99.90;;;;;;5026531;28;20221;-81
2023/07/15 00:56:33;;;;;;;6.80;3.85;;;17.90;99.90;;;;;;5034267;28;20244;-81
2023/07/15 00:59:00;;;;;;;4.93;3.38;;;17.90;99.90;;;;;;5050566;28;20238;-81
2023/07/15 01:01:29;;;;;;;3.88;3.33;;;17.80;99.90;;;;;;5032733;28;20722;-81
2023/07/15 01:03:57;;;;;;;5.82;3.88;;;17.80;99.90;;;;;;5051410;28;20224;-82
2023/07/15 01:06:24;;;;;;;4.57;3.55;;;17.70;99.90;;;;;;5041472;28;20233;-81
2023/07/15 01:08:51;;;;;;;6.97;3.80;;;17.70;99.90;;;;;;5027031;28;20243;-80
2023/07/15 01:11:18;;;;;;;5.45;3.42;;;17.60;99.90;;;;;;5030961;28;20232;-80
2023/07/15 01:13:45;;;;;;;4.22;3.78;;;17.60;99.90;;;;;;5028517;28;20220;-80
2023/07/15 01:16:14;;;;;;;4.93;3.30;;;17.50;99.90;;;;;;5033861;28;20227;-80
2023/07/15 01:18:42;;;;;;;4.07;3.00;;;17.50;99.90;;;;;;5027492;28;20228;-80
2023/07/15 01:21:11;;;;;;;7.13;3.63;;;17.50;99.90;;;;;;5043889;28;20216;-81
2023/07/15 01:23:39;;;;;;;5.70;3.43;;;17.50;99.90;;;;;;5046817;28;20211;-80
2023/07/15 01:26:06;;;;;;;4.90;3.55;;;17.40;99.90;;;;;;5027176;28;20220;-80
2023/07/15 01:28:33;;;;;;;4.22;3.38;;;17.50;99.90;;;;;;5050734;28;20219;-80
2023/07/15 01:30:59;;;;;;;5.40;3.30;;;17.40;99.90;;;;;;5046819;28;20311;-80
2023/07/15 01:33:26;;;;;;;4.57;3.13;;;17.40;99.90;;;;;;5047852;28;20285;-80
2023/07/15 01:35:53;;;;;;;6.38;3.58;;;17.40;99.90;;;;;;5048083;28;20224;-81
2023/07/15 01:38:20;;;;;;;4.13;3.30;;;17.40;99.90;;;;;;5032592;28;20223;-81
2023/07/15 01:40:48;;;;;;;5.35;3.25;;;17.40;99.90;;;;;;5037573;28;20663;-80
2023/07/15 01:43:15;;;;;;;8.53;3.43;;;17.50;99.90;;;;;;5035419;28;20233;-80
2023/07/15 01:45:42;;;;;;;6.22;3.67;;;17.50;99.90;;;;;;5037318;28;20635;-81
2023/07/15 01:48:08;;;;;;;8.13;3.80;;;17.50;99.90;;;;;;5029644;28;20212;-80
2023/07/15 01:50:35;;;;;;;4.65;3.40;;;17.50;99.90;;;;;;5035202;28;20304;-79
2023/07/15 01:53:02;;;;;;;4.85;3.65;;;17.50;99.90;;;;;;5055081;28;20238;-80
2023/07/15 01:55:29;;;;;;;4.95;3.40;;;17.50;99.90;;;;;;5034563;28;20244;-80
2023/07/15 01:57:57;;;;;;;4.30;3.05;;;17.50;99.90;;;;;;5025594;28;20220;-80
2023/07/15 02:00:24;;;;;;;4.70;3.20;;;17.40;99.90;;;;;;5041932;28;20667;-79
2023/07/15 02:02:51;;;;;;;7.28;3.78;;;17.40;99.90;;;;;;5033514;28;20278;-79
2023/07/15 02:05:18;;;;;;;5.78;3.17;;;17.40;99.90;;;;;;5033260;28;20227;-79
2023/07/15 02:07:45;;;;;;;4.22;3.13;;;17.40;99.90;;;;;;5044764;28;20948;-79
2023/07/15 02:10:11;;;;;;;4.77;3.43;;;17.30;99.90;;;;;;5032517;28;20249;-80
2023/07/15 02:12:38;;;;;;;5.55;3.33;;;17.30;99.90;;;;;;5030394;28;20258;-80
2023/07/15 02:15:08;;;;;;;5.10;3.42;;;17.20;99.90;;;;;;5027717;28;20312;-80
2023/07/15 02:17:36;;;;;;;5.28;3.25;;;17.20;99.90;;;;;;5031727;28;20228;-80
2023/07/15 02:20:06;;;;;;;3.97;2.88;;;17.20;99.90;;;;;;5025255;28;20307;-81
2023/07/15 02:22:33;;;;;;;3.50;3.13;;;17.10;99.90;;;;;;5046660;28;20250;-81
2023/07/15 02:25:00;;;;;;;5.13;3.25;;;17.10;99.90;;;;;;5026133;28;20911;-81
2023/07/15 02:27:27;;;;;;;5.13;3.30;;;17.10;99.90;;;;;;5030601;28;20672;-81
2023/07/15 02:29:55;;;;;;;3.93;3.40;;;17.00;99.90;;;;;;5041562;28;20243;-80
2023/07/15 02:32:38;;;;;;;5.25;3.53;;;17.00;99.90;;;;;;5050623;28;20243;-80
2023/07/15 02:35:08;;;;;;;4.20;3.10;;;17.00;99.90;;;;;;5048912;23;20228;-78
2023/07/15 02:37:35;;;;;;;4.93;3.13;;;16.90;99.90;;;;;;5032932;28;20228;-77
2023/07/15 02:40:03;;;;;;;4.70;3.15;;;16.90;99.90;;;;;;5027464;28;20274;-77
2023/07/15 02:42:33;;;;;;;5.10;3.17;;;16.90;99.90;;;;;;5041461;28;20289;-77
2023/07/15 02:45:01;;;;;;;4.00;3.60;;;16.80;99.90;;;;;;5040094;28;20235;-77
2023/07/15 02:47:27;;;;;;;4.77;3.30;;;16.80;99.90;;;;;;5023915;28;20236;-77
2023/07/15 02:49:56;;;;;;;6.80;3.47;;;16.70;99.90;;;;;;5041635;28;20212;-77
2023/07/15 02:52:24;;;;;;;4.57;3.10;;;16.70;99.90;;;;;;5027425;28;20236;-75
2023/07/15 02:54:50;;;;;;;3.67;3.30;;;16.70;99.90;;;;;;5027770;28;20234;-76
2023/07/15 02:57:18;;;;;;;4.70;3.20;;;16.70;99.90;;;;;;5021598;28;20224;-75
2023/07/15 02:59:44;;;;;;;5.23;3.00;;;16.70;99.90;;;;;;5027141;28;20259;-76
2023/07/15 03:02:11;;;;;;;4.30;3.03;;;16.60;99.90;;;;;;5028441;28;20253;-78
2023/07/15 03:04:38;;;;;;;5.77;2.97;;;16.60;99.90;;;;;;5029106;28;20232;-77
2023/07/15 03:07:07;;;;;;;5.17;3.30;;;16.60;99.90;;;;;;5046173;28;20238;-79
2023/07/15 03:09:33;;;;;;;3.80;3.27;;;16.60;99.90;;;;;;5011682;28;20220;-79
2023/07/15 03:12:00;;;;;;;7.30;3.40;;;16.60;99.90;;;;;;5046667;28;20283;-77
2023/07/15 03:14:27;;;;;;;5.47;3.30;;;16.50;99.90;;;;;;5028129;28;20234;-77
2023/07/15 03:16:53;;;;;;;4.47;3.10;;;16.50;99.90;;;;;;5028926;28;20228;-77
2023/07/15 03:19:20;;;;;;;5.43;3.40;;;16.50;99.90;;;;;;5044335;28;20783;-77
2023/07/15 03:21:48;;;;;;;4.33;3.27;;;16.50;99.90;;;;;;5044298;28;20217;-78
2023/07/15 03:24:16;;;;;;;5.50;3.70;;;16.50;99.90;;;;;;5045646;28;20779;-77
2023/07/15 03:26:44;;;;;;;5.23;2.93;;;16.40;99.90;;;;;;5045091;28;20259;-77
2023/07/15 03:29:11;;;;;;;5.93;3.27;;;16.40;99.90;;;;;;5032129;28;20229;-78
2023/07/15 03:31:41;;;;;;;3.83;2.80;;;16.40;99.90;;;;;;5016769;28;20817;-76
2023/07/15 03:34:07;;;;;;;5.20;3.27;;;16.40;99.90;;;;;;5023883;28;20224;-77
2023/07/15 03:36:35;;;;;;;4.70;2.97;;;16.40;99.90;;;;;;5025833;28;20231;-77
2023/07/15 03:39:02;;;;;;;5.00;3.27;;;16.40;99.90;;;;;;5033775;28;20720;-78
2023/07/15 03:41:30;;;;;;;5.20;3.00;;;16.40;99.90;;;;;;5025510;28;20251;-79
2023/07/15 03:43:57;;;;;;;5.03;2.93;;;16.40;99.90;;;;;;5044899;28;20728;-79
2023/07/15 03:46:24;;;;;;;4.93;3.50;;;16.40;99.90;;;;;;5038358;28;20235;-77
2023/07/15 03:48:51;;;;;;;3.47;3.17;;;16.40;99.90;;;;;;5063905;28;20318;-77
2023/07/15 03:51:18;;;;;;;4.60;3.17;;;16.40;99.90;;;;;;5045422;28;20220;-78
2023/07/15 03:53:44;;;;;;;5.23;3.00;;;16.40;99.90;;;;;;5046359;28;20227;-79
2023/07/15 03:56:11;;;;;;;4.00;3.10;;;16.50;99.90;;;;;;5047856;28;20589;-77
2023/07/15 03:58:40;;;;;;;4.57;3.07;;;16.50;99.90;;;;;;5048880;28;20251;-77
2023/07/15 04:01:06;;;;;;;5.47;3.40;;;16.60;99.90;;;;;;5047455;28;20283;-77
2023/07/15 04:03:33;;;;;;;5.10;3.20;;;16.60;99.90;;;;;;5039483;28;20260;-78
2023/07/15 04:06:00;;;;;;;4.57;3.17;;;16.70;99.90;;;;;;5036915;28;20311;-77
2023/07/15 04:08:26;;;;;;;5.20;3.20;;;16.80;99.90;;;;;;5042539;28;20235;-77
2023/07/15 04:10:53;;;;;;;3.75;3.03;;;16.90;99.90;;;;;;5037960;28;20255;-76
2023/07/15 04:13:20;;;;;;;4.57;3.03;;;17.00;99.90;;;;;;5045698;28;20228;-76
2023/07/15 04:15:48;;;;;;;5.27;3.47;;;17.10;99.90;;;;;;5044146;28;20242;-77
2023/07/15 04:18:16;;;;;;;5.88;3.10;;;17.20;99.90;;;;;;5045164;28;20226;-78
2023/07/15 04:20:43;;;;;;;6.32;2.90;;;17.20;99.90;;;;;;5045567;28;20227;-78
2023/07/15 04:23:10;;;;;;;3.13;2.67;;;17.20;99.90;;;;;;5023363;28;20240;-78
2023/07/15 04:25:36;;;;;;;5.75;2.97;;;17.30;99.90;;;;;;5034838;28;20228;-79
2023/07/15 04:28:03;;;;;;;4.57;2.80;;;17.30;99.90;;;;;;5047599;28;20220;-77
2023/07/15 04:30:30;;;;;;;4.50;2.92;;;17.30;99.90;;;;;;5042803;28;20232;-78
2023/07/15 04:32:58;;;;;;;4.65;3.30;;;17.30;99.90;;;;;;5046399;28;20316;-77
2023/07/15 04:35:25;;;;;;;4.07;3.08;;;17.30;99.90;;;;;;5046856;28;20250;-77
2023/07/15 04:37:51;;;;;;;3.50;3.10;;;17.40;99.90;;;;;;5054859;28;20231;-77
2023/07/15 04:40:18;;;;;;;4.95;2.90;;;17.40;99.90;;;;;;5028584;28;20238;-77
2023/07/15 04:42:45;;;;;;;4.68;2.78;;;17.40;99.90;;;;;;5042414;28;20231;-77
2023/07/15 04:45:12;;;;;;;4.10;3.00;;;17.30;99.90;;;;;;5046664;28;20769;-78
2023/07/15 04:47:39;;;;;;;5.25;3.17;;;17.40;99.90;;;;;;5040612;28;20607;-76
2023/07/15 04:50:07;;;;;;;5.60;3.22;;;17.30;99.90;;;;;;5034885;28;20223;-78
2023/07/15 04:52:34;;;;;;;3.97;2.53;;;17.30;99.90;;;;;;5050154;28;20239;-77
2023/07/15 04:55:01;;;;;;;3.85;3.03;;;17.30;99.90;;;;;;5053896;28;20223;-78
2023/07/15 04:57:27;;;;;;;3.57;2.73;;;17.40;99.90;;;;;;5049208;28;20915;-76
2023/07/15 04:59:54;;;;;;;6.07;3.50;;;17.30;99.90;;;;;;5035298;28;20709;-76
2023/07/15 05:02:22;;;;;;;4.13;2.70;;;17.40;99.90;;;;;;5043724;28;20209;-77
2023/07/15 05:04:48;;;;;;;4.70;2.72;;;17.40;99.90;;;;;;5050110;28;20246;-76
2023/07/15 05:07:17;;;;;;;4.32;2.60;;;17.50;99.90;;;;;;5053382;28;20234;-77
2023/07/15 05:09:44;;;;;;;3.72;2.80;;;17.50;99.90;;;;;;5043682;28;20219;-78
2023/07/15 05:12:11;;;;;;;5.07;3.17;;;17.50;99.90;;;;;;5043563;28;20743;-78
2023/07/15 05:14:38;;;;;;;5.75;3.30;;;17.50;99.90;;;;;;5043834;28;20250;-78
2023/07/15 05:17:07;;;;;;;4.17;2.90;;;17.60;99.90;;;;;;5043463;28;20215;-79
2023/07/15 05:19:34;;;;;;;6.50;3.20;;;17.60;99.90;;;;;;5045547;28;21365;-79
2023/07/15 05:22:01;;;;;;;6.88;3.20;;;17.70;99.90;;;;;;5044549;28;20619;-80
2023/07/15 05:24:29;;;;;;;5.70;3.22;;;17.80;99.90;;;;;;5044994;28;20314;-78
2023/07/15 05:26:56;;;;;;;3.83;2.45;;;17.80;99.90;;;;;;5045437;28;20267;-78
2023/07/15 05:29:23;;;;;;;5.10;3.22;;;17.90;99.90;;;;;;5024548;28;20205;-77
2023/07/15 05:31:50;;;;;;;4.90;2.72;;;18.00;99.90;;;;;;5032311;28;20729;-77
2023/07/15 05:34:18;;;;;;;4.20;3.35;;;18.10;99.90;;;;;;5046639;28;20223;-80
2023/07/15 05:36:44;;;;;;;5.72;3.05;;;18.20;99.90;;;;;;5045242;28;20278;-80
2023/07/15 05:39:11;;;;;;;4.40;2.85;;;18.30;99.90;;;;;;5038411;28;20298;-79
2023/07/15 05:41:39;;;;;;;4.15;3.30;;;18.40;99.90;;;;;;5047458;28;20281;-82
2023/07/15 05:44:06;;;;;;;5.80;3.10;;;18.50;99.90;;;;;;5046481;28;20220;-80
2023/07/15 05:46:33;;;;;;;4.20;2.75;;;18.60;99.90;;;;;;5042603;28;20732;-80
2023/07/15 05:49:03;;;;;;;5.68;3.08;;;18.70;99.90;;;;;;5026586;28;20228;-80
2023/07/15 05:51:29;;;;;;;5.43;2.92;;;18.80;99.90;;;;;;5044422;28;20232;-79
2023/07/15 05:53:56;;;;;;;4.10;2.50;;;18.90;99.90;;;;;;5046392;28;20682;-79
2023/07/15 05:56:23;;;;;;;5.70;2.63;;;18.90;99.90;;;;;;5048732;28;20602;-80
2023/07/15 05:58:51;;;;;;;4.15;2.90;;;19.10;99.70;;;;;;5044696;28;20267;-80
2023/07/15 06:01:18;;;;;;;6.22;2.60;;;19.20;99.50;;;;;;5034673;28;20239;-85
2023/07/15 06:03:44;;;;;;;6.13;3.30;;;19.30;99.50;;;;;;5038690;28;20220;-80
2023/07/15 06:06:12;;;;;;;4.50;2.80;;;19.40;99.20;;;;;;5044180;28;20603;-79
2023/07/15 06:08:39;;;;;;;3.97;3.10;;;19.60;99.00;;;;;;5047706;28;20822;-81
2023/07/15 06:11:06;;;;;;;3.55;3.08;;;19.70;98.10;;;;;;5046042;28;20219;-79
2023/07/15 06:13:33;;;;;;;6.38;3.10;;;19.70;98.10;;;;;;5048629;28;20247;-79
2023/07/15 06:16:01;;;;;;;6.28;3.00;;;19.80;97.50;;;;;;5028417;28;20448;-82
2023/07/15 06:18:28;;;;;;;3.78;2.70;;;19.80;97.90;;;;;;5042418;28;20220;-79
2023/07/15 06:20:55;;;;;;;4.85;2.63;;;19.90;97.50;;;;;;5029427;28;20232;-79
2023/07/15 06:23:21;;;;;;;3.72;2.92;;;19.90;97.80;;;;;;5028809;28;20239;-79
2023/07/15 06:25:49;;;;;;;6.00;2.67;;;19.90;98.00;;;;;;5046220;28;20258;-80
2023/07/15 06:28:15;;;;;;;5.10;3.40;;;19.90;97.70;;;;;;5042261;28;20220;-80
2023/07/15 06:30:44;;;;;;;3.65;3.10;;;20.00;97.60;;;;;;5042474;28;20255;-79
2023/07/15 06:33:12;;;;;;;4.43;3.10;;;20.10;97.70;;;;;;5042068;28;20309;-78
2023/07/15 06:35:39;;;;;;;5.07;3.03;;;20.20;97.70;;;;;;5042915;28;20232;-80
2023/07/15 06:38:06;;;;;;;4.25;2.58;;;20.20;97.60;;;;;;5039757;28;20220;-79
2023/07/15 06:40:32;;;;;;;4.85;2.75;;;20.40;97.90;;;;;;5033808;28;20256;-80
2023/07/15 06:42:59;;;;;;;3.60;2.72;;;20.60;97.40;;;;;;5044074;28;20244;-78
2023/07/15 06:45:33;;;;;;;3.03;2.50;;;20.70;96.70;;;;;;5046206;28;20238;-78
2023/07/15 06:48:00;;;;;;;3.60;2.72;;;20.90;96.80;;;;;;5041501;28;21395;-78
2023/07/15 06:50:28;;;;;;;6.45;3.22;;;21.10;96.90;;;;;;5029577;28;20812;-78
2023/07/15 06:52:55;;;;;;;4.10;2.97;;;21.20;96.70;;;;;;5045293;28;20220;-79
2023/07/15 06:55:21;;;;;;;3.85;2.95;;;21.40;97.10;;;;;;5024261;28;21832;-78
2023/07/15 06:57:48;;;;;;;3.58;2.90;;;21.40;96.70;;;;;;5040278;28;20239;-79
2023/07/15 07:00:15;;;;;;;4.50;3.08;;;21.60;96.70;;;;;;5050249;28;20223;-79
2023/07/15 07:02:42;;;;;;;3.83;3.00;;;21.70;96.40;;;;;;5044350;28;20220;-79
2023/07/15 07:05:09;;;;;;;4.43;3.05;;;21.80;96.50;;;;;;5047389;28;20232;-79
2023/07/15 07:07:37;;;;;;;5.25;3.10;;;22.00;96.10;;;;;;5044650;28;20235;-79
2023/07/15 07:10:04;;;;;;;3.83;2.78;;;22.20;95.40;;;;;;5043883;28;20709;-79
2023/07/15 07:12:31;;;;;;;7.35;3.05;;;22.40;95.60;;;;;;5051248;28;20266;-79
2023/07/15 07:14:57;;;;;;;4.28;2.60;;;22.70;95.40;;;;;;5044352;28;20785;-80
2023/07/15 07:17:24;;;;;;;3.05;2.47;;;23.10;95.60;;;;;;5028401;28;20235;-78
2023/07/15 07:19:51;;;;;;;6.03;3.17;;;23.60;95.30;;;;;;5043798;28;20228;-79
2023/07/15 07:22:17;;;;;;;5.97;2.90;;;24.10;95.00;;;;;;5026389;28;20223;-78
2023/07/15 07:24:46;;;;;;;6.32;2.70;;;24.60;93.60;;;;;;5036720;28;20232;-80
2023/07/15 07:27:13;;;;;;;3.95;2.30;;;25.20;93.70;;;;;;5018844;28;20856;-79
2023/07/15 07:29:40;;;;;;;4.82;3.00;;;25.70;91.50;;;;;;5036686;28;20274;-80
2023/07/15 07:32:07;;;;;;;3.35;2.67;;;26.10;91.10;;;;;;5040479;28;20853;-82
2023/07/15 07:34:34;;;;;;;7.82;2.85;;;26.50;90.60;;;;;;5027341;28;20238;-77
2023/07/15 07:37:01;;;;;;;3.80;2.55;;;27.00;89.40;;;;;;5044921;28;20229;-78
2023/07/15 07:39:28;;;;;;;4.53;2.50;;;27.30;86.70;;;;;;5045449;28;20224;-79
2023/07/15 07:41:56;;;;;;;5.53;2.85;;;27.60;86.80;;;;;;5044077;28;20220;-79
2023/07/15 07:44:22;;;;;;;3.60;2.60;;;27.90;83.70;;;;;;5039261;28;20319;-80
2023/07/15 07:46:49;;;;;;;3.33;2.38;;;28.10;83.40;;;;;;5035165;28;20701;-82
2023/07/15 07:49:17;;;;;;;5.53;2.60;;;28.30;81.60;;;;;;5038159;28;20596;-79
2023/07/15 07:51:43;;;;;;;5.63;2.50;;;28.50;81.00;;;;;;5035987;28;20216;-80
2023/07/15 07:54:10;;;;;;;4.70;2.58;;;28.70;83.40;;;;;;5025754;28;20315;-81
2023/07/15 07:56:37;;;;;;;3.33;2.53;;;29.00;81.90;;;;;;5023044;28;20239;-81
2023/07/15 07:59:05;;;;;;;3.22;2.22;;;29.30;82.30;;;;;;5036106;28;20209;-78
2023/07/15 08:01:31;;;;;;;4.57;2.38;;;29.70;81.00;;;;;;5038487;28;20607;-81
2023/07/15 08:03:58;;;;;;;3.78;2.50;;;30.00;77.10;;;;;;5022478;28;20219;-82
2023/07/15 08:06:26;;;;;;;3.88;2.58;;;30.20;75.10;;;;;;5044367;28;20220;-79
2023/07/15 08:08:53;;;;;;;4.28;2.47;;;30.30;73.00;;;;;;5046820;28;20225;-81
2023/07/15 08:11:20;;;;;;;3.13;1.98;;;30.30;72.70;;;;;;5044097;28;20228;-78
2023/07/15 08:13:47;;;;;;;2.78;2.30;;;30.40;73.50;;;;;;5041899;28;20221;-85
2023/07/15 08:19:07;;;;;;;3.47;2.28;;;30.40;69.80;;;;;;5058018;27;20581;-78
2023/07/15 08:21:34;;;;;;;5.10;2.40;;;30.70;71.70;;;;;;5039850;28;20259;-79
2023/07/15 08:24:01;;;;;;;2.63;2.20;;;30.80;71.00;;;;;;5040386;28;20216;-79
2023/07/15 08:26:29;;;;;;;3.30;2.25;;;30.90;70.90;;;;;;5038096;28;20611;-78
2023/07/15 08:28:58;;;;;;;2.38;2.17;;;31.10;70.50;;;;;;5038527;28;20220;-80
2023/07/15 08:31:24;;;;;;;3.55;2.28;;;31.10;69.20;;;;;;5037483;28;20240;-78
2023/07/15 08:33:52;;;;;;;2.58;2.30;;;31.30;68.70;;;;;;5034245;28;20307;-78
2023/07/15 08:36:20;;;;;;;2.65;1.95;;;31.50;67.60;;;;;;5035528;23;20225;-78
2023/07/15 08:38:47;;;;;;;5.38;2.35;;;31.60;65.90;;;;;;5016342;28;20226;-78
2023/07/15 08:41:15;;;;;;;4.95;2.17;;;31.70;65.60;;;;;;5016159;28;20224;-78
2023/07/15 08:43:45;;;;;;;4.22;2.38;;;31.80;67.10;;;;;;5010726;28;20231;-77
2023/07/15 08:46:27;;;;;;;2.85;1.95;;;32.00;65.10;;;;;;4995644;28;20491;-78
2023/07/15 08:48:54;;;;;;;2.50;2.00;;;32.20;63.80;;;;;;4990198;28;20822;-77
2023/07/15 08:51:25;;;;;;;3.58;1.90;;;32.30;65.70;;;;;;4996432;28;20218;-80
2023/07/15 08:53:53;;;;;;;2.85;2.10;;;32.50;62.00;;;;;;5002366;28;20574;-80
2023/07/15 08:56:23;;;;;;;4.07;2.25;;;32.50;62.40;;;;;;5014645;28;20232;-80
2023/07/15 08:58:50;;;;;;;2.35;2.00;;;32.50;60.50;;;;;;5000339;28;20232;-80
2023/07/15 09:01:17;;;;;;;2.58;1.60;;;32.60;60.70;;;;;;5001732;28;20218;-80
2023/07/15 09:03:44;;;;;;;5.68;2.80;;;32.60;62.10;;;;;;5000571;28;20304;-80
2023/07/15 09:06:11;;;;;;;5.15;2.30;;;32.70;60.80;;;;;;4998370;28;20229;-80
2023/07/15 09:08:42;;;;;;;4.30;2.30;;;32.70;60.40;;;;;;5002673;28;20265;-80
2023/07/15 09:11:12;;;;;;;4.45;2.50;;;32.80;60.60;;;;;;4995616;28;20219;-80
2023/07/15 09:13:39;;;;;;;2.60;2.20;;;32.80;59.50;;;;;;4997628;28;20230;-79
2023/07/15 09:16:06;;;;;;;3.45;1.85;;;32.90;59.60;;;;;;4997452;28;20790;-80
2023/07/15 09:18:38;;;;;;;4.20;2.20;;;32.90;59.50;;;;;;5000822;28;20229;-80
2023/07/15 09:21:09;;;;;;;2.95;1.73;;;32.90;57.90;;;;;;4998214;28;21045;-80
2023/07/15 09:23:40;;;;;;;3.10;2.33;;;32.80;56.90;;;;;;4998561;28;20221;-80
2023/07/15 09:26:08;;;;;;;5.47;2.40;;;32.80;58.30;;;;;;4994752;28;20228;-80
2023/07/15 09:28:35;;;;;;;3.15;2.53;;;32.70;58.70;;;;;;4993924;28;20583;-79
2023/07/15 09:31:02;;;;;;;3.38;2.28;;;32.70;58.70;;;;;;5002580;28;20226;-79
2023/07/15 09:33:30;;;;;;;4.43;2.28;;;32.90;59.50;;;;;;4992527;28;20229;-79
2023/07/15 09:35:57;;;;;;;2.60;2.13;;;32.90;59.60;;;;;;4985809;28;20316;-80
2023/07/15 09:38:24;;;;;;;3.28;2.08;;;33.20;60.40;;;;;;4986417;28;20230;-77
2023/07/15 09:40:52;;;;;;;3.97;2.00;;;33.50;59.10;;;;;;4989391;28;20269;-79
2023/07/15 09:43:19;;;;;;;3.22;2.05;;;33.70;57.40;;;;;;4996251;28;20799;-80
2023/07/15 09:45:46;;;;;;;4.30;2.22;;;33.90;58.50;;;;;;4991911;28;20233;-78
2023/07/15 09:48:16;;;;;;;3.17;2.47;;;34.00;56.30;;;;;;5005234;28;20233;-78
2023/07/15 09:50:43;;;;;;;3.28;1.80;;;34.20;56.50;;;;;;4991640;28;20225;-78
2023/07/15 09:53:11;;;;;;;2.10;1.90;;;34.30;57.20;;;;;;4985418;28;20308;-78
2023/07/15 09:55:39;;;;;;;2.08;1.88;;;34.40;56.10;;;;;;4982972;28;20866;-78
2023/07/15 09:58:13;;;;;;;2.83;2.03;;;34.50;55.70;;;;;;4983652;28;20249;-78
2023/07/15 10:00:43;;;;;;;2.67;2.10;;;34.70;54.00;;;;;;4986941;28;20285;-78
2023/07/15 10:03:19;;;;;;;3.35;2.00;;;34.80;54.70;;;;;;4973180;28;20527;-78
2023/07/15 10:05:47;;;;;;;3.40;1.92;;;35.00;54.90;;;;;;4975222;28;20729;-78
2023/07/15 10:08:14;;;;;;;7.10;4.35;;;35.10;54.90;;;;;;4990600;28;20215;-78
2023/07/15 10:10:42;;;;;;;10.07;6.43;;;35.30;53.90;;;;;;4982777;28;20253;-78
2023/07/15 10:13:11;;;;;;;5.53;2.25;;;35.50;53.20;;;;;;4986172;28;20234;-78
2023/07/15 10:15:39;;;;;;;4.97;2.00;;;35.60;53.20;;;;;;4989306;28;20237;-78
2023/07/15 10:18:13;;;;;;;3.10;1.90;;;35.70;52.90;;;;;;4986876;28;20251;-78
2023/07/15 10:20:43;;;;;;;1.65;1.55;;;35.90;52.60;;;;;;4984260;28;20750;-78
2023/07/15 10:23:10;;;;;;;2.60;1.90;;;35.90;51.50;;;;;;4982542;28;20717;-78
2023/07/15 10:25:38;;;;;;;2.17;1.70;;;36.00;51.60;;;;;;4986718;28;20226;-78
2023/07/15 10:28:13;;;;;;;2.45;1.70;;;36.00;50.30;;;;;;4987676;28;20300;-78
2023/07/15 10:31:00;;;;;;;2.08;1.67;;;36.00;50.70;;;;;;4987120;28;20232;-78
2023/07/15 10:33:27;;;;;;;3.15;1.75;;;36.00;51.10;;;;;;4985630;28;20314;-78
2023/07/15 10:35:54;;;;;;;2.10;1.63;;;36.00;50.40;;;;;;4979686;28;20695;-78
2023/07/15 10:38:25;;;;;;;2.42;1.80;;;36.10;50.00;;;;;;4987606;28;20222;-78
2023/07/15 10:40:55;;;;;;;2.33;1.80;;;36.10;50.50;;;;;;4979242;28;20699;-78
2023/07/15 10:43:25;;;;;;;2.60;1.83;;;36.20;49.80;;;;;;4985530;28;20245;-78
2023/07/15 10:45:53;;;;;;;3.33;1.73;;;36.20;49.40;;;;;;4980646;28;20233;-78
2023/07/15 10:48:20;;;;;;;3.08;1.98;;;36.20;49.30;;;;;;4985240;28;20712;-78
2023/07/15 10:50:48;;;;;;;2.40;1.70;;;36.10;48.00;;;;;;4984893;28;20223;-78
2023/07/15 10:53:21;;;;;;;4.15;1.65;;;36.00;49.20;;;;;;4967898;28;21012;-78
2023/07/15 10:55:54;;;;;;;3.40;1.83;;;35.80;48.50;;;;;;4979064;28;20230;-80
2023/07/15 10:58:22;;;;;;;3.63;1.63;;;35.70;48.70;;;;;;4985704;28;20786;-78
2023/07/15 11:00:50;;;;;;;6.50;1.80;;;35.60;49.30;;;;;;4991688;28;21008;-78
2023/07/15 11:03:17;;;;;;;2.42;1.60;;;35.60;49.50;;;;;;4981449;28;20794;-78
2023/07/15 11:05:44;;;;;;;1.63;1.52;;;35.60;49.90;;;;;;4980842;28;20227;-81
2023/07/15 11:08:11;;;;;;;3.38;1.80;;;35.80;50.80;;;;;;4988153;28;20222;-78
2023/07/15 11:10:38;;;;;;;4.50;1.50;;;35.90;48.80;;;;;;4987267;28;20225;-78
2023/07/15 11:13:13;;;;;;;1.80;1.45;;;35.90;48.70;;;;;;4992295;28;20234;-78
2023/07/15 11:15:41;;;;;;;3.28;1.55;;;36.00;49.80;;;;;;4987789;28;20789;-78
2023/07/15 11:18:15;;;;;;;3.72;1.80;;;36.10;49.00;;;;;;4986570;28;20240;-78
2023/07/15 11:20:42;;;;;;;2.38;2.00;;;36.00;49.20;;;;;;4989954;28;20222;-78
2023/07/15 11:23:09;;;;;;;2.50;1.58;;;36.00;49.20;;;;;;4977370;28;21074;-78
2023/07/15 11:25:37;;;;;;;2.90;1.50;;;35.80;48.60;;;;;;4995483;28;20222;-78
2023/07/15 11:28:04;;;;;;;6.13;2.40;;;35.50;48.60;;;;;;4985518;28;20253;-78
2023/07/15 11:30:34;;;;;;;2.30;1.50;;;35.30;49.00;;;;;;4985170;28;20229;-78
2023/07/15 11:33:02;;;;;;;2.60;1.88;;;35.00;49.20;;;;;;4988046;28;20313;-78
2023/07/15 11:35:31;;;;;;;2.05;1.50;;;34.70;49.60;;;;;;4986009;28;20231;-78
2023/07/15 11:37:58;;;;;;;1.95;1.60;;;34.40;50.00;;;;;;4981412;28;20613;-78
2023/07/15 11:40:25;;;;;;;4.32;1.48;;;34.10;50.00;;;;;;4986926;28;20226;-78
2023/07/15 11:42:52;;;;;;;4.70;1.65;;;33.90;50.90;;;;;;4989421;28;20222;-78
2023/07/15 11:45:23;;;;;;;3.88;1.77;;;33.60;51.30;;;;;;4980873;28;20714;-78
2023/07/15 11:47:54;;;;;;;6.90;2.08;;;33.50;51.70;;;;;;4981143;28;20774;-78
2023/07/15 11:50:27;;;;;;;5.07;1.80;;;33.30;51.30;;;;;;4986524;28;20218;-78
2023/07/15 11:52:55;;;;;;;2.67;1.50;;;33.00;51.30;;;;;;4986698;28;20226;-78
2023/07/15 11:55:25;;;;;;;1.80;1.60;;;32.90;51.90;;;;;;4992701;28;20619;-78
2023/07/15 11:57:52;;;;;;;3.88;1.65;;;32.80;52.50;;;;;;4994284;28;20758;-78
2023/07/15 12:00:29;;;;;;;3.53;1.80;;;32.60;52.90;;;;;;4984504;28;20245;-78
2023/07/15 12:02:56;;;;;;;3.70;1.95;;;32.40;53.00;;;;;;4985678;28;20229;-78
2023/07/15 12:05:23;;;;;;;3.20;2.05;;;32.30;53.30;;;;;;4994127;28;20975;-78
2023/07/15 12:07:53;;;;;;;7.55;1.95;;;32.10;53.10;;;;;;4986097;28;20335;-78
2023/07/15 12:10:20;;;;;;;5.22;1.80;;;31.90;53.60;;;;;;4992350;28;20918;-78
2023/07/15 12:12:47;;;;;;;4.00;1.73;;;31.70;54.20;;;;;;4987409;28;20345;-79
2023/07/15 12:15:17;;;;;;;2.28;1.60;;;31.50;54.20;;;;;;4986941;28;20225;-79
2023/07/15 12:17:45;;;;;;;2.90;1.90;;;31.30;54.40;;;;;;4980003;28;20226;-79
2023/07/15 12:20:12;;;;;;;5.18;2.10;;;31.20;55.10;;;;;;4981165;28;20229;-79
2023/07/15 12:22:40;;;;;;;5.10;1.67;;;31.10;55.60;;;;;;4992920;28;20230;-79
2023/07/15 12:25:09;;;;;;;2.40;1.80;;;31.10;56.30;;;;;;4980627;28;20238;-79
2023/07/15 12:27:36;;;;;;;3.05;1.63;;;31.10;57.00;;;;;;5003015;28;20276;-79
2023/07/15 12:30:03;;;;;;;3.20;1.88;;;31.20;57.30;;;;;;4991763;28;20229;-82
2023/07/15 12:32:30;;;;;;;3.13;1.83;;;31.30;57.30;;;;;;4993300;28;20230;-82
2023/07/15 12:34:57;;;;;;;3.35;1.98;;;31.50;56.90;;;;;;4978994;28;20243;-82
2023/07/15 12:37:23;;;;;;;2.03;1.60;;;31.50;56.60;;;;;;4989599;28;20230;-82
2023/07/15 12:39:50;;;;;;;6.13;2.40;;;31.60;56.40;;;;;;4985466;28;20234;-82
2023/07/15 12:42:18;;;;;;;4.30;1.85;;;31.70;56.40;;;;;;4986522;28;20229;-82
2023/07/15 12:44:45;;;;;;;5.00;2.30;;;31.80;56.60;;;;;;4983790;28;20222;-82
2023/07/15 12:47:11;;;;;;;2.33;1.73;;;31.80;57.00;;;;;;4988999;28;20222;-82
2023/07/15 12:49:38;;;;;;;3.90;2.10;;;31.90;56.10;;;;;;4980043;28;20227;-82
2023/07/15 12:52:05;;;;;;;4.28;2.00;;;31.90;55.90;;;;;;4984203;28;20233;-82
2023/07/15 12:54:32;;;;;;;4.18;1.70;;;31.90;56.10;;;;;;4996003;28;20226;-81